sensor_id;sensor_type;location;lat;lon;timestamp;pressure;altitude;pressure_sealevel;temperature;humidity
65553;BME280;72126;51.560;14.368;2023-12-28T00:00:44;100052.25;;;9.89;66.05
65553;BME280;72126;51.560;14.368;2023-12-28T00:03:10;100039.19;;;9.89;66.20
65553;BME280;72126;51.560;14.368;2023-12-28T00:05:35;100034.78;;;9.89;66.26
65553;BME280;72126;51.560;14.368;2023-12-28T00:08:00;100033.78;;;9.90;66.14
65553;BME280;72126;51.560;14.368;2023-12-28T00:10:26;100029.53;;;9.89;66.09
65553;BME280;72126;51.560;14.368;2023-12-28T00:12:52;100021.88;;;9.88;66.41
65553;BME280;72126;51.560;14.368;2023-12-28T00:15:17;100022.69;;;9.88;66.06
65553;BME280;72126;51.560;14.368;2023-12-28T00:17:42;100016.63;;;9.88;66.24
65553;BME280;72126;51.560;14.368;2023-12-28T00:20:08;100008.78;;;9.88;66.07
65553;BME280;72126;51.560;14.368;2023-12-28T00:22:33;100006.19;;;9.88;66.07
65553;BME280;72126;51.560;14.368;2023-12-28T00:24:58;100000.94;;;9.88;66.00
65553;BME280;72126;51.560;14.368;2023-12-28T00:27:23;100004.53;;;9.87;66.29
65553;BME280;72126;51.560;14.368;2023-12-28T00:29:48;100004.53;;;9.87;66.09
65553;BME280;72126;51.560;14.368;2023-12-28T00:32:14;99992.25;;;9.87;66.46
65553;BME280;72126;51.560;14.368;2023-12-28T00:34:39;99994.06;;;9.87;66.42
65553;BME280;72126;51.560;14.368;2023-12-28T00:37:04;99995.84;;;9.86;66.05
65553;BME280;72126;51.560;14.368;2023-12-28T00:39:29;99993.25;;;9.86;66.33
65553;BME280;72126;51.560;14.368;2023-12-28T00:41:54;99992.44;;;9.86;66.05
65553;BME280;72126;51.560;14.368;2023-12-28T00:44:19;99992.44;;;9.86;66.29
65553;BME280;72126;51.560;14.368;2023-12-28T00:46:45;99987.19;;;9.86;66.23
65553;BME280;72126;51.560;14.368;2023-12-28T00:49:10;99981.97;;;9.86;66.01
65553;BME280;72126;51.560;14.368;2023-12-28T00:51:35;99979.53;;;9.84;66.43
65553;BME280;72126;51.560;14.368;2023-12-28T00:54:00;99975.91;;;9.85;66.07
65553;BME280;72126;51.560;14.368;2023-12-28T00:56:25;99969.88;;;9.85;66.67
65553;BME280;72126;51.560;14.368;2023-12-28T00:58:51;99974.28;;;9.84;66.46
65553;BME280;72126;51.560;14.368;2023-12-28T01:01:16;99956.81;;;9.85;66.09
65553;BME280;72126;51.560;14.368;2023-12-28T01:03:41;99957.78;;;9.84;66.03
65553;BME280;72126;51.560;14.368;2023-12-28T01:06:07;99957.78;;;9.84;66.51
65553;BME280;72126;51.560;14.368;2023-12-28T01:08:32;99958.78;;;9.83;66.30
65553;BME280;72126;51.560;14.368;2023-12-28T01:10:57;99958.78;;;9.83;66.28
65553;BME280;72126;51.560;14.368;2023-12-28T01:13:22;99957.97;;;9.82;66.21
65553;BME280;72126;51.560;14.368;2023-12-28T01:15:47;99934.44;;;9.82;66.37
65553;BME280;72126;51.560;14.368;2023-12-28T01:18:13;99939.66;;;9.82;66.61
65553;BME280;72126;51.560;14.368;2023-12-28T01:20:38;99948.44;;;9.81;66.15
65553;BME280;72126;51.560;14.368;2023-12-28T01:23:03;99949.25;;;9.81;66.28
65553;BME280;72126;51.560;14.368;2023-12-28T01:25:28;99950.25;;;9.80;66.18
65553;BME280;72126;51.560;14.368;2023-12-28T01:27:54;99941.44;;;9.81;66.12
65553;BME280;72126;51.560;14.368;2023-12-28T01:30:19;99943.22;;;9.81;66.48
65553;BME280;72126;51.560;14.368;2023-12-28T01:32:44;99943.22;;;9.81;66.14
65553;BME280;72126;51.560;14.368;2023-12-28T01:35:09;99939.78;;;9.80;66.28
65553;BME280;72126;51.560;14.368;2023-12-28T01:37:34;99935.53;;;9.79;66.53
65553;BME280;72126;51.560;14.368;2023-12-28T01:40:00;99935.53;;;9.79;66.68
65553;BME280;72126;51.560;14.368;2023-12-28T01:42:25;99926.88;;;9.79;66.67
65553;BME280;72126;51.560;14.368;2023-12-28T01:44:50;99913.81;;;9.79;66.46
65553;BME280;72126;51.560;14.368;2023-12-28T01:47:15;99919.84;;;9.79;66.10
65553;BME280;72126;51.560;14.368;2023-12-28T01:49:41;99906.28;;;9.76;65.96
65553;BME280;72126;51.560;14.368;2023-12-28T01:52:06;99906.16;;;9.77;66.75
65553;BME280;72126;51.560;14.368;2023-12-28T01:54:33;99904.34;;;9.78;66.13
65553;BME280;72126;51.560;14.368;2023-12-28T01:57:01;99910.56;;;9.77;66.05
65553;BME280;72126;51.560;14.368;2023-12-28T01:59:28;99904.50;;;9.76;65.96
65553;BME280;72126;51.560;14.368;2023-12-28T02:01:54;99904.50;;;9.76;66.20
65553;BME280;72126;51.560;14.368;2023-12-28T02:04:19;99908.91;;;9.76;66.60
65553;BME280;72126;51.560;14.368;2023-12-28T02:06:45;99914.13;;;9.76;66.01
65553;BME280;72126;51.560;14.368;2023-12-28T02:09:10;99903.66;;;9.76;66.55
65553;BME280;72126;51.560;14.368;2023-12-28T02:11:35;99910.56;;;9.77;66.13
65553;BME280;72126;51.560;14.368;2023-12-28T02:14:00;99904.50;;;9.76;66.36
65553;BME280;72126;51.560;14.368;2023-12-28T02:16:32;99905.47;;;9.75;66.24
65553;BME280;72126;51.560;14.368;2023-12-28T02:19:01;99886.53;;;9.73;66.31
65553;BME280;72126;51.560;14.368;2023-12-28T02:21:31;99883.91;;;9.73;66.45
65553;BME280;72126;51.560;14.368;2023-12-28T02:23:56;99880.31;;;9.74;66.21
65553;BME280;72126;51.560;14.368;2023-12-28T02:26:21;99884.72;;;9.74;66.36
65553;BME280;72126;51.560;14.368;2023-12-28T02:28:47;99882.91;;;9.74;66.68
65553;BME280;72126;51.560;14.368;2023-12-28T02:31:21;99883.09;;;9.73;66.41
65553;BME280;72126;51.560;14.368;2023-12-28T02:33:52;99881.47;;;9.72;66.26
65553;BME280;72126;51.560;14.368;2023-12-28T02:36:23;99889.13;;;9.73;66.53
65553;BME280;72126;51.560;14.368;2023-12-28T02:38:48;99882.28;;;9.72;66.04
65553;BME280;72126;51.560;14.368;2023-12-28T02:41:14;99897.97;;;9.72;66.43
65553;BME280;72126;51.560;14.368;2023-12-28T02:43:40;99905.81;;;9.72;65.91
65553;BME280;72126;51.560;14.368;2023-12-28T02:46:05;99900.75;;;9.71;66.14
65553;BME280;72126;51.560;14.368;2023-12-28T02:48:30;99899.91;;;9.70;66.36
65553;BME280;72126;51.560;14.368;2023-12-28T02:50:55;99899.91;;;9.70;66.41
65553;BME280;72126;51.560;14.368;2023-12-28T02:53:20;99905.13;;;9.70;66.52
65553;BME280;72126;51.560;14.368;2023-12-28T02:55:46;99897.28;;;9.70;66.80
65553;BME280;72126;51.560;14.368;2023-12-28T02:58:11;99898.13;;;9.71;66.20
65553;BME280;72126;51.560;14.368;2023-12-28T03:00:36;99893.84;;;9.70;66.47
65553;BME280;72126;51.560;14.368;2023-12-28T03:03:01;99899.09;;;9.70;66.61
65553;BME280;72126;51.560;14.368;2023-12-28T03:05:27;99878.97;;;9.70;66.32
65553;BME280;72126;51.560;14.368;2023-12-28T03:07:52;99882.59;;;9.69;66.14
65553;BME280;72126;51.560;14.368;2023-12-28T03:10:17;99890.41;;;9.69;66.56
65553;BME280;72126;51.560;14.368;2023-12-28T03:12:42;99888.78;;;9.68;66.84
65553;BME280;72126;51.560;14.368;2023-12-28T03:15:08;99894.84;;;9.69;66.43
65553;BME280;72126;51.560;14.368;2023-12-28T03:17:33;99901.88;;;9.68;66.18
65553;BME280;72126;51.560;14.368;2023-12-28T03:19:58;99901.88;;;9.68;66.19
65553;BME280;72126;51.560;14.368;2023-12-28T03:22:24;99888.78;;;9.68;66.66
65553;BME280;72126;51.560;14.368;2023-12-28T03:24:49;99896.63;;;9.68;67.04
65553;BME280;72126;51.560;14.368;2023-12-28T03:27:15;99899.25;;;9.68;66.04
65553;BME280;72126;51.560;14.368;2023-12-28T03:29:43;99897.63;;;9.67;66.47
65553;BME280;72126;51.560;14.368;2023-12-28T03:32:09;99911.34;;;9.69;66.50
65553;BME280;72126;51.560;14.368;2023-12-28T03:34:34;99906.44;;;9.66;66.55
65553;BME280;72126;51.560;14.368;2023-12-28T03:36:59;99893.38;;;9.66;66.19
65553;BME280;72126;51.560;14.368;2023-12-28T03:39:25;99902.03;;;9.67;66.44
65553;BME280;72126;51.560;14.368;2023-12-28T03:41:50;99896.13;;;9.65;66.25
65553;BME280;72126;51.560;14.368;2023-12-28T03:44:15;99891.75;;;9.65;66.31
65553;BME280;72126;51.560;14.368;2023-12-28T03:46:40;99884.84;;;9.64;66.35
65553;BME280;72126;51.560;14.368;2023-12-28T03:49:06;99883.06;;;9.65;66.59
65553;BME280;72126;51.560;14.368;2023-12-28T03:51:31;99885.66;;;9.65;66.52
65553;BME280;72126;51.560;14.368;2023-12-28T03:53:56;99890.09;;;9.64;66.54
65553;BME280;72126;51.560;14.368;2023-12-28T03:56:26;99895.31;;;9.64;66.73
65553;BME280;72126;51.560;14.368;2023-12-28T03:58:51;99898.75;;;9.65;66.25
65553;BME280;72126;51.560;14.368;2023-12-28T04:01:21;99890.25;;;9.63;66.60
65553;BME280;72126;51.560;14.368;2023-12-28T04:03:47;99891.06;;;9.63;66.08
65553;BME280;72126;51.560;14.368;2023-12-28T04:06:13;99898.09;;;9.63;66.09
65553;BME280;72126;51.560;14.368;2023-12-28T04:08:39;99895.47;;;9.63;66.44
65553;BME280;72126;51.560;14.368;2023-12-28T04:11:04;99890.25;;;9.63;66.48
65553;BME280;72126;51.560;14.368;2023-12-28T04:13:29;99886.81;;;9.62;66.71
65553;BME280;72126;51.560;14.368;2023-12-28T04:15:55;99884.22;;;9.62;66.65
65553;BME280;72126;51.560;14.368;2023-12-28T04:18:20;99897.28;;;9.62;66.77
65553;BME280;72126;51.560;14.368;2023-12-28T04:20:45;99898.91;;;9.63;66.55
65553;BME280;72126;51.560;14.368;2023-12-28T04:23:10;99901.69;;;9.62;66.73
65553;BME280;72126;51.560;14.368;2023-12-28T04:25:36;99905.94;;;9.63;66.63
65553;BME280;72126;51.560;14.368;2023-12-28T04:28:02;99897.44;;;9.61;66.38
65553;BME280;72126;51.560;14.368;2023-12-28T04:30:27;99900.88;;;9.61;66.35
65553;BME280;72126;51.560;14.368;2023-12-28T04:32:52;99897.44;;;9.61;66.23
65553;BME280;72126;51.560;14.368;2023-12-28T04:35:17;99884.38;;;9.61;66.56
65553;BME280;72126;51.560;14.368;2023-12-28T04:37:43;99894.81;;;9.61;66.75
65553;BME280;72126;51.560;14.368;2023-12-28T04:40:08;99898.44;;;9.60;66.92
65553;BME280;72126;51.560;14.368;2023-12-28T04:42:34;99913.25;;;9.59;66.48
65553;BME280;72126;51.560;14.368;2023-12-28T04:45:02;99909.00;;;9.58;66.21
65553;BME280;72126;51.560;14.368;2023-12-28T04:47:27;99921.09;;;9.59;66.27
65553;BME280;72126;51.560;14.368;2023-12-28T04:49:52;99915.06;;;9.59;66.49
65553;BME280;72126;51.560;14.368;2023-12-28T04:52:18;99918.47;;;9.59;66.47
65553;BME280;72126;51.560;14.368;2023-12-28T04:54:43;99918.47;;;9.59;66.49
65553;BME280;72126;51.560;14.368;2023-12-28T04:57:08;99912.44;;;9.59;66.08
65553;BME280;72126;51.560;14.368;2023-12-28T04:59:33;99910.66;;;9.59;66.73
65553;BME280;72126;51.560;14.368;2023-12-28T05:01:58;99911.63;;;9.58;66.97
65553;BME280;72126;51.560;14.368;2023-12-28T05:04:23;99918.81;;;9.56;66.52
65553;BME280;72126;51.560;14.368;2023-12-28T05:06:49;99927.31;;;9.58;66.41
65553;BME280;72126;51.560;14.368;2023-12-28T05:09:14;99937.75;;;9.58;66.68
65553;BME280;72126;51.560;14.368;2023-12-28T05:11:39;99942.16;;;9.58;66.68
65553;BME280;72126;51.560;14.368;2023-12-28T05:14:04;99947.41;;;9.58;66.41
65553;BME280;72126;51.560;14.368;2023-12-28T05:16:29;99946.59;;;9.57;66.86
65553;BME280;72126;51.560;14.368;2023-12-28T05:18:54;99953.44;;;9.58;67.06
65553;BME280;72126;51.560;14.368;2023-12-28T05:21:20;99957.69;;;9.59;66.91
65553;BME280;72126;51.560;14.368;2023-12-28T05:23:45;99951.81;;;9.57;66.16
65553;BME280;72126;51.560;14.368;2023-12-28T05:26:10;99958.66;;;9.58;66.68
65553;BME280;72126;51.560;14.368;2023-12-28T05:28:35;99962.91;;;9.59;66.19
65553;BME280;72126;51.560;14.368;2023-12-28T05:31:00;99958.66;;;9.58;66.74
65553;BME280;72126;51.560;14.368;2023-12-28T05:33:26;99949.19;;;9.57;66.41
65553;BME280;72126;51.560;14.368;2023-12-28T05:35:51;99968.31;;;9.58;66.86
65553;BME280;72126;51.560;14.368;2023-12-28T05:38:16;99958.84;;;9.57;66.32
65553;BME280;72126;51.560;14.368;2023-12-28T05:40:41;99954.59;;;9.56;66.31
65553;BME280;72126;51.560;14.368;2023-12-28T05:43:07;99972.72;;;9.57;66.71
65553;BME280;72126;51.560;14.368;2023-12-28T05:45:32;99968.31;;;9.58;66.17
65553;BME280;72126;51.560;14.368;2023-12-28T05:47:57;99969.28;;;9.57;66.16
65553;BME280;72126;51.560;14.368;2023-12-28T05:50:22;99977.13;;;9.57;66.45
65553;BME280;72126;51.560;14.368;2023-12-28T05:52:47;99975.34;;;9.57;66.25
65553;BME280;72126;51.560;14.368;2023-12-28T05:55:13;99968.63;;;9.54;66.48
65553;BME280;72126;51.560;14.368;2023-12-28T05:57:38;99980.56;;;9.57;66.45
65553;BME280;72126;51.560;14.368;2023-12-28T06:00:03;99981.53;;;9.56;66.73
65553;BME280;72126;51.560;14.368;2023-12-28T06:02:29;99988.56;;;9.56;66.87
65553;BME280;72126;51.560;14.368;2023-12-28T06:04:54;99986.13;;;9.54;66.51
65553;BME280;72126;51.560;14.368;2023-12-28T06:07:19;99999.19;;;9.54;66.39
65553;BME280;72126;51.560;14.368;2023-12-28T06:09:44;100013.72;;;9.57;66.83
65553;BME280;72126;51.560;14.368;2023-12-28T06:12:09;100023.34;;;9.56;66.68
65553;BME280;72126;51.560;14.368;2023-12-28T06:14:35;100006.69;;;9.57;66.83
65553;BME280;72126;51.560;14.368;2023-12-28T06:17:00;99997.22;;;9.56;66.48
65553;BME280;72126;51.560;14.368;2023-12-28T06:19:25;99999.84;;;9.56;66.36
65553;BME280;72126;51.560;14.368;2023-12-28T06:21:50;99997.22;;;9.56;66.17
65553;BME280;72126;51.560;14.368;2023-12-28T06:24:15;99998.34;;;9.53;66.64
65553;BME280;72126;51.560;14.368;2023-12-28T06:26:44;99990.34;;;9.55;66.41
65553;BME280;72126;51.560;14.368;2023-12-28T06:29:10;99978.28;;;9.54;66.57
65553;BME280;72126;51.560;14.368;2023-12-28T06:31:36;99973.88;;;9.54;66.20
65553;BME280;72126;51.560;14.368;2023-12-28T06:34:02;99986.13;;;9.54;66.68
65553;BME280;72126;51.560;14.368;2023-12-28T06:36:28;99988.72;;;9.54;67.03
65553;BME280;72126;51.560;14.368;2023-12-28T06:38:53;99994.78;;;9.54;66.63
65553;BME280;72126;51.560;14.368;2023-12-28T06:41:18;100000.00;;;9.54;66.67
65553;BME280;72126;51.560;14.368;2023-12-28T06:43:43;100001.78;;;9.54;66.40
65553;BME280;72126;51.560;14.368;2023-12-28T06:46:12;99998.34;;;9.53;66.20
65553;BME280;72126;51.560;14.368;2023-12-28T06:48:37;100002.59;;;9.54;66.71
65553;BME280;72126;51.560;14.368;2023-12-28T06:51:02;100002.59;;;9.54;66.25
65553;BME280;72126;51.560;14.368;2023-12-28T06:53:28;100008.66;;;9.55;66.76
65553;BME280;72126;51.560;14.368;2023-12-28T06:55:53;100019.09;;;9.55;66.37
65553;BME280;72126;51.560;14.368;2023-12-28T06:58:18;100012.91;;;9.56;66.45
65553;BME280;72126;51.560;14.368;2023-12-28T07:00:43;100026.94;;;9.55;66.58
65553;BME280;72126;51.560;14.368;2023-12-28T07:03:08;100024.31;;;9.55;66.64
65553;BME280;72126;51.560;14.368;2023-12-28T07:05:33;100021.72;;;9.55;66.63
65553;BME280;72126;51.560;14.368;2023-12-28T07:07:59;100020.91;;;9.54;66.44
65553;BME280;72126;51.560;14.368;2023-12-28T07:10:24;100040.00;;;9.55;66.68
65553;BME280;72126;51.560;14.368;2023-12-28T07:12:49;100047.84;;;9.55;66.37
65553;BME280;72126;51.560;14.368;2023-12-28T07:15:15;100038.22;;;9.56;66.75
65553;BME280;72126;51.560;14.368;2023-12-28T07:17:40;100041.66;;;9.56;66.40
65553;BME280;72126;51.560;14.368;2023-12-28T07:20:06;100022.53;;;9.56;66.66
65553;BME280;72126;51.560;14.368;2023-12-28T07:22:31;100009.31;;;9.57;66.61
65553;BME280;72126;51.560;14.368;2023-12-28T07:24:56;100016.50;;;9.55;66.72
65553;BME280;72126;51.560;14.368;2023-12-28T07:27:21;100027.75;;;9.56;66.67
65553;BME280;72126;51.560;14.368;2023-12-28T07:29:46;100039.03;;;9.56;66.83
65553;BME280;72126;51.560;14.368;2023-12-28T07:32:12;100047.84;;;9.55;66.41
65553;BME280;72126;51.560;14.368;2023-12-28T07:34:37;100048.66;;;9.56;66.45
65553;BME280;72126;51.560;14.368;2023-12-28T07:37:02;100044.25;;;9.56;66.59
65553;BME280;72126;51.560;14.368;2023-12-28T07:39:27;100043.28;;;9.57;66.69
65553;BME280;72126;51.560;14.368;2023-12-28T07:41:52;100051.13;;;9.57;66.59
65553;BME280;72126;51.560;14.368;2023-12-28T07:44:18;100055.53;;;9.57;66.86
65553;BME280;72126;51.560;14.368;2023-12-28T07:46:43;100060.75;;;9.57;66.09
65553;BME280;72126;51.560;14.368;2023-12-28T07:49:08;100056.34;;;9.57;66.36
65553;BME280;72126;51.560;14.368;2023-12-28T07:51:33;100052.91;;;9.57;66.61
65553;BME280;72126;51.560;14.368;2023-12-28T07:53:58;100045.06;;;9.57;66.45
65553;BME280;72126;51.560;14.368;2023-12-28T07:56:23;100066.16;;;9.55;66.39
65553;BME280;72126;51.560;14.368;2023-12-28T07:58:49;100059.94;;;9.56;66.26
65553;BME280;72126;51.560;14.368;2023-12-28T08:01:14;100064.19;;;9.57;66.07
65553;BME280;72126;51.560;14.368;2023-12-28T08:03:39;100054.72;;;9.56;66.35
65553;BME280;72126;51.560;14.368;2023-12-28T08:06:04;100056.34;;;9.57;66.87
65553;BME280;72126;51.560;14.368;2023-12-28T08:08:30;100058.13;;;9.57;66.44
65553;BME280;72126;51.560;14.368;2023-12-28T08:10:56;100065.97;;;9.57;66.26
65553;BME280;72126;51.560;14.368;2023-12-28T08:13:21;100054.72;;;9.56;66.40
65553;BME280;72126;51.560;14.368;2023-12-28T08:15:46;100058.97;;;9.57;66.21
65553;BME280;72126;51.560;14.368;2023-12-28T08:18:12;100069.41;;;9.57;66.10
65553;BME280;72126;51.560;14.368;2023-12-28T08:20:37;100073.81;;;9.57;66.18
65553;BME280;72126;51.560;14.368;2023-12-28T08:23:02;100069.56;;;9.56;66.57
65553;BME280;72126;51.560;14.368;2023-12-28T08:25:28;100066.97;;;9.56;66.29
65553;BME280;72126;51.560;14.368;2023-12-28T08:27:53;100076.28;;;9.58;66.75
65553;BME280;72126;51.560;14.368;2023-12-28T08:30:18;100079.88;;;9.57;66.21
65553;BME280;72126;51.560;14.368;2023-12-28T08:32:43;100071.03;;;9.58;66.06
65553;BME280;72126;51.560;14.368;2023-12-28T08:35:08;100082.47;;;9.57;66.22
65553;BME280;72126;51.560;14.368;2023-12-28T08:37:33;100084.28;;;9.57;66.52
65553;BME280;72126;51.560;14.368;2023-12-28T08:39:59;100086.06;;;9.56;66.68
65553;BME280;72126;51.560;14.368;2023-12-28T08:42:24;100094.56;;;9.58;66.46
65553;BME280;72126;51.560;14.368;2023-12-28T08:44:49;100093.75;;;9.58;66.84
65553;BME280;72126;51.560;14.368;2023-12-28T08:47:14;100091.13;;;9.58;66.12
65553;BME280;72126;51.560;14.368;2023-12-28T08:49:39;100104.19;;;9.58;66.53
65553;BME280;72126;51.560;14.368;2023-12-28T08:52:05;100095.53;;;9.57;66.59
65553;BME280;72126;51.560;14.368;2023-12-28T08:54:30;100100.78;;;9.57;66.40
65553;BME280;72126;51.560;14.368;2023-12-28T08:56:55;100103.22;;;9.59;66.18
65553;BME280;72126;51.560;14.368;2023-12-28T08:59:20;100111.88;;;9.59;66.67
65553;BME280;72126;51.560;14.368;2023-12-28T09:01:45;100112.03;;;9.58;66.63
65553;BME280;72126;51.560;14.368;2023-12-28T09:04:11;100105.84;;;9.59;66.24
65553;BME280;72126;51.560;14.368;2023-12-28T09:06:36;100104.03;;;9.59;66.44
65553;BME280;72126;51.560;14.368;2023-12-28T09:09:01;100109.25;;;9.59;66.20
65553;BME280;72126;51.560;14.368;2023-12-28T09:11:27;100120.56;;;9.60;66.59
65553;BME280;72126;51.560;14.368;2023-12-28T09:13:52;100114.50;;;9.59;66.48
65553;BME280;72126;51.560;14.368;2023-12-28T09:16:17;100126.75;;;9.59;66.64
65553;BME280;72126;51.560;14.368;2023-12-28T09:18:43;100124.00;;;9.60;66.31
65553;BME280;72126;51.560;14.368;2023-12-28T09:21:09;100117.97;;;9.60;66.32
65553;BME280;72126;51.560;14.368;2023-12-28T09:23:35;100122.19;;;9.61;66.15
65553;BME280;72126;51.560;14.368;2023-12-28T09:26:01;100116.28;;;9.59;66.47
65553;BME280;72126;51.560;14.368;2023-12-28T09:28:26;100115.34;;;9.60;66.55
65553;BME280;72126;51.560;14.368;2023-12-28T09:30:51;100118.78;;;9.60;66.36
65553;BME280;72126;51.560;14.368;2023-12-28T09:33:17;100129.22;;;9.60;66.57
65553;BME280;72126;51.560;14.368;2023-12-28T09:35:42;100131.50;;;9.63;66.49
65553;BME280;72126;51.560;14.368;2023-12-28T09:38:07;100130.88;;;9.61;66.75
65553;BME280;72126;51.560;14.368;2023-12-28T09:40:33;100131.69;;;9.62;66.55
65553;BME280;72126;51.560;14.368;2023-12-28T09:43:23;100136.91;;;9.62;66.61
65553;BME280;72126;51.560;14.368;2023-12-28T09:45:49;100138.53;;;9.63;66.60
65553;BME280;72126;51.560;14.368;2023-12-28T09:48:17;100127.09;;;9.64;66.28
65553;BME280;72126;51.560;14.368;2023-12-28T09:50:44;100124.50;;;9.64;66.20
65553;BME280;72126;51.560;14.368;2023-12-28T09:53:10;100122.69;;;9.64;66.47
65553;BME280;72126;51.560;14.368;2023-12-28T09:55:35;100113.22;;;9.63;66.00
65553;BME280;72126;51.560;14.368;2023-12-28T09:58:02;100109.78;;;9.63;66.71
65553;BME280;72126;51.560;14.368;2023-12-28T10:00:28;100108.97;;;9.62;66.63
65553;BME280;72126;51.560;14.368;2023-12-28T10:02:54;100112.25;;;9.64;66.43
65553;BME280;72126;51.560;14.368;2023-12-28T10:05:19;100120.91;;;9.65;66.32
65553;BME280;72126;51.560;14.368;2023-12-28T10:07:44;100114.84;;;9.64;66.06
65553;BME280;72126;51.560;14.368;2023-12-28T10:10:10;100113.06;;;9.65;66.19
65553;BME280;72126;51.560;14.368;2023-12-28T10:12:36;100121.75;;;9.65;66.69
65553;BME280;72126;51.560;14.368;2023-12-28T10:15:03;100121.75;;;9.65;66.63
65553;BME280;72126;51.560;14.368;2023-12-28T10:17:28;100119.13;;;9.65;66.24
65553;BME280;72126;51.560;14.368;2023-12-28T10:19:53;100110.44;;;9.65;66.14
65553;BME280;72126;51.560;14.368;2023-12-28T10:22:19;100118.97;;;9.67;66.52
65553;BME280;72126;51.560;14.368;2023-12-28T10:24:44;100114.72;;;9.66;66.27
65553;BME280;72126;51.560;14.368;2023-12-28T10:27:09;100119.94;;;9.66;66.24
65553;BME280;72126;51.560;14.368;2023-12-28T10:29:34;100120.78;;;9.66;66.28
65553;BME280;72126;51.560;14.368;2023-12-28T10:32:00;100119.78;;;9.67;66.24
65553;BME280;72126;51.560;14.368;2023-12-28T10:34:25;100121.44;;;9.68;66.69
65553;BME280;72126;51.560;14.368;2023-12-28T10:36:51;100125.03;;;9.67;66.12
65553;BME280;72126;51.560;14.368;2023-12-28T10:39:19;100110.97;;;9.68;66.19
65553;BME280;72126;51.560;14.368;2023-12-28T10:41:49;100109.34;;;9.67;66.55
65553;BME280;72126;51.560;14.368;2023-12-28T10:44:17;100104.09;;;9.67;66.28
65553;BME280;72126;51.560;14.368;2023-12-28T10:46:44;100114.56;;;9.67;66.67
65553;BME280;72126;51.560;14.368;2023-12-28T10:49:11;100112.59;;;9.69;66.75
65553;BME280;72126;51.560;14.368;2023-12-28T10:51:40;100113.59;;;9.68;66.03
65553;BME280;72126;51.560;14.368;2023-12-28T10:56:45;100114.41;;;9.69;66.17
65553;BME280;72126;51.560;14.368;2023-12-28T10:59:33;100110.97;;;9.68;66.15
65553;BME280;72126;51.560;14.368;2023-12-28T11:02:01;100110.00;;;9.69;66.16
65553;BME280;72126;51.560;14.368;2023-12-28T11:04:48;100120.44;;;9.69;66.34
65553;BME280;72126;51.560;14.368;2023-12-28T11:07:15;100118.66;;;9.70;66.61
65553;BME280;72126;51.560;14.368;2023-12-28T11:09:42;100124.69;;;9.70;66.55
65553;BME280;72126;51.560;14.368;2023-12-28T11:12:07;100120.31;;;9.71;66.12
65553;BME280;72126;51.560;14.368;2023-12-28T11:14:34;100111.63;;;9.70;66.25
65553;BME280;72126;51.560;14.368;2023-12-28T11:16:59;100119.16;;;9.73;66.53
65553;BME280;72126;51.560;14.368;2023-12-28T11:19:25;100116.41;;;9.75;66.03
65553;BME280;72126;51.560;14.368;2023-12-28T11:21:51;100115.56;;;9.74;66.34
65553;BME280;72126;51.560;14.368;2023-12-28T11:24:16;100118.88;;;9.76;66.08
65553;BME280;72126;51.560;14.368;2023-12-28T11:26:42;100115.13;;;9.79;65.94
65553;BME280;72126;51.560;14.368;2023-12-28T11:29:07;100116.75;;;9.80;65.70
65553;BME280;72126;51.560;14.368;2023-12-28T11:31:34;100119.38;;;9.80;65.84
65553;BME280;72126;51.560;14.368;2023-12-28T11:33:59;100121.81;;;9.81;65.82
65553;BME280;72126;51.560;14.368;2023-12-28T11:36:35;100129.66;;;9.81;66.19
65553;BME280;72126;51.560;14.368;2023-12-28T11:39:03;100129.53;;;9.83;66.02
65553;BME280;72126;51.560;14.368;2023-12-28T11:41:31;100123.47;;;9.83;66.00
65553;BME280;72126;51.560;14.368;2023-12-28T11:43:56;100114.81;;;9.82;65.73
65553;BME280;72126;51.560;14.368;2023-12-28T11:46:21;100121.81;;;9.81;66.11
65553;BME280;72126;51.560;14.368;2023-12-28T11:48:47;100111.34;;;9.81;66.16
65553;BME280;72126;51.560;14.368;2023-12-28T11:51:12;100118.25;;;9.83;66.27
65553;BME280;72126;51.560;14.368;2023-12-28T11:53:38;100113.84;;;9.83;66.09
65553;BME280;72126;51.560;14.368;2023-12-28T11:56:03;100119.06;;;9.83;65.95
65553;BME280;72126;51.560;14.368;2023-12-28T11:58:29;100113.84;;;9.83;66.31
65553;BME280;72126;51.560;14.368;2023-12-28T12:00:54;100108.09;;;9.79;65.93
65553;BME280;72126;51.560;14.368;2023-12-28T12:03:19;100107.78;;;9.83;66.06
65553;BME280;72126;51.560;14.368;2023-12-28T12:05:45;100103.38;;;9.83;66.04
65553;BME280;72126;51.560;14.368;2023-12-28T12:08:10;100099.78;;;9.84;66.08
65553;BME280;72126;51.560;14.368;2023-12-28T12:10:35;100099.78;;;9.84;66.19
65553;BME280;72126;51.560;14.368;2023-12-28T12:13:00;100108.44;;;9.85;65.91
65553;BME280;72126;51.560;14.368;2023-12-28T12:15:26;100113.69;;;9.85;65.95
65553;BME280;72126;51.560;14.368;2023-12-28T12:17:52;100102.25;;;9.86;66.44
65553;BME280;72126;51.560;14.368;2023-12-28T12:20:17;100110.91;;;9.86;66.14
65553;BME280;72126;51.560;14.368;2023-12-28T12:22:42;100098.00;;;9.85;66.29
65553;BME280;72126;51.560;14.368;2023-12-28T12:25:08;100098.81;;;9.85;66.01
65553;BME280;72126;51.560;14.368;2023-12-28T12:27:36;100113.69;;;9.85;66.14
65553;BME280;72126;51.560;14.368;2023-12-28T12:30:01;100105.53;;;9.88;65.92
65553;BME280;72126;51.560;14.368;2023-12-28T12:32:27;100110.75;;;9.88;66.31
65553;BME280;72126;51.560;14.368;2023-12-28T12:34:52;100103.75;;;9.88;66.46
65553;BME280;72126;51.560;14.368;2023-12-28T12:37:18;100112.41;;;9.89;66.38
65553;BME280;72126;51.560;14.368;2023-12-28T12:39:43;100105.38;;;9.89;66.00
65553;BME280;72126;51.560;14.368;2023-12-28T12:42:12;100116.81;;;9.88;66.46
65553;BME280;72126;51.560;14.368;2023-12-28T12:44:38;100115.00;;;9.89;66.25
65553;BME280;72126;51.560;14.368;2023-12-28T12:47:03;100112.41;;;9.89;66.02
65553;BME280;72126;51.560;14.368;2023-12-28T12:49:28;100111.41;;;9.90;66.02